sensor_id;sensor_type;location;lat;lon;timestamp;pressure;altitude;pressure_sealevel;temperature;humidity
10176;BME280;18221;38.704;0.152;2022-07-25T00:12:18;98852.75;;;29.42;61.82
10176;BME280;18221;38.704;0.152;2022-07-25T00:14:47;98845.06;;;29.38;62.11
10176;BME280;18221;38.704;0.152;2022-07-25T00:17:15;98848.91;;;29.38;61.68
10176;BME280;18221;38.704;0.152;2022-07-25T00:19:45;98853.31;;;29.44;62.08
10176;BME280;18221;38.704;0.152;2022-07-25T00:22:13;98857.34;;;29.36;61.47
10176;BME280;18221;38.704;0.152;2022-07-25T00:24:41;98852.13;;;29.29;61.43
10176;BME280;18221;38.704;0.152;2022-07-25T00:27:12;98848.31;;;29.30;61.38
10176;BME280;18221;38.704;0.152;2022-07-25T00:29:40;98846.63;;;29.24;61.82
10176;BME280;18221;38.704;0.152;2022-07-25T00:32:09;98843.66;;;29.31;61.59
10176;BME280;18221;38.704;0.152;2022-07-25T00:34:37;98846.13;;;29.27;61.52
10176;BME280;18221;38.704;0.152;2022-07-25T00:37:05;98839.53;;;29.28;61.48
10176;BME280;18221;38.704;0.152;2022-07-25T00:39:33;98838.47;;;29.29;61.60
10176;BME280;18221;38.704;0.152;2022-07-25T00:42:03;98830.47;;;29.23;61.43
10176;BME280;18221;38.704;0.152;2022-07-25T00:44:32;98822.31;;;29.28;61.04
10176;BME280;18221;38.704;0.152;2022-07-25T00:47:03;98817.06;;;29.21;61.54
10176;BME280;18221;38.704;0.152;2022-07-25T00:49:32;98820.88;;;29.20;60.76
10176;BME280;18221;38.704;0.152;2022-07-25T00:52:00;98814.50;;;29.10;61.13
10176;BME280;18221;38.704;0.152;2022-07-25T00:54:29;98810.94;;;29.04;61.51
10176;BME280;18221;38.704;0.152;2022-07-25T00:56:57;98812.00;;;29.03;61.36
10176;BME280;18221;38.704;0.152;2022-07-25T00:59:25;98801.94;;;29.09;61.46
10176;BME280;18221;38.704;0.152;2022-07-25T01:01:53;98803.56;;;29.10;61.17
10176;BME280;18221;38.704;0.152;2022-07-25T01:04:21;98797.56;;;29.13;60.99
10176;BME280;18221;38.704;0.152;2022-07-25T01:06:51;98799.25;;;29.19;60.83
10176;BME280;18221;38.704;0.152;2022-07-25T01:09:20;98799.22;;;29.14;59.99
10176;BME280;18221;38.704;0.152;2022-07-25T01:11:48;98791.06;;;29.19;60.17
10176;BME280;18221;38.704;0.152;2022-07-25T01:14:16;98798.41;;;29.13;60.24
10176;BME280;18221;38.704;0.152;2022-07-25T01:16:44;98792.94;;;29.13;60.12
10176;BME280;18221;38.704;0.152;2022-07-25T01:19:12;98794.31;;;29.16;60.25
10176;BME280;18221;38.704;0.152;2022-07-25T01:21:42;98797.56;;;29.13;60.16
10176;BME280;18221;38.704;0.152;2022-07-25T01:24:10;98794.84;;;29.13;59.85
10176;BME280;18221;38.704;0.152;2022-07-25T01:26:38;98796.16;;;29.05;60.33
10176;BME280;18221;38.704;0.152;2022-07-25T01:29:06;98799.44;;;29.07;60.10
10176;BME280;18221;38.704;0.152;2022-07-25T01:31:34;98786.38;;;29.09;60.00
10176;BME280;18221;38.704;0.152;2022-07-25T01:34:02;98790.69;;;29.05;59.78
10176;BME280;18221;38.704;0.152;2022-07-25T01:36:29;98780.91;;;29.09;59.67
10176;BME280;18221;38.704;0.152;2022-07-25T01:39:01;98789.63;;;29.06;59.70
10176;BME280;18221;38.704;0.152;2022-07-25T01:41:29;98792.88;;;29.03;59.76
10176;BME280;18221;38.704;0.152;2022-07-25T01:43:57;98785.75;;;29.02;60.04
10176;BME280;18221;38.704;0.152;2022-07-25T01:46:25;98769.63;;;29.01;59.53
10176;BME280;18221;38.704;0.152;2022-07-25T01:48:56;98774.81;;;29.02;59.89
10176;BME280;18221;38.704;0.152;2022-07-25T01:51:24;98777.88;;;29.11;59.48
10176;BME280;18221;38.704;0.152;2022-07-25T01:53:52;98774.56;;;29.04;59.54
10176;BME280;18221;38.704;0.152;2022-07-25T01:56:21;98767.41;;;28.98;59.30
10176;BME280;18221;38.704;0.152;2022-07-25T01:58:49;98770.97;;;28.98;58.90
10176;BME280;18221;38.704;0.152;2022-07-25T02:01:17;98762.50;;;29.00;59.01
10176;BME280;18221;38.704;0.152;2022-07-25T02:03:45;98765.50;;;28.98;58.85
10176;BME280;18221;38.704;0.152;2022-07-25T02:06:13;98760.25;;;28.92;58.87
10176;BME280;18221;38.704;0.152;2022-07-25T02:08:41;98757.25;;;28.88;59.23
10176;BME280;18221;38.704;0.152;2022-07-25T02:11:08;98756.44;;;28.93;59.06
10176;BME280;18221;38.704;0.152;2022-07-25T02:13:38;98751.25;;;28.91;59.02
10176;BME280;18221;38.704;0.152;2022-07-25T02:16:06;98753.69;;;28.88;58.45
10176;BME280;18221;38.704;0.152;2022-07-25T02:18:34;98756.13;;;28.84;58.78
10176;BME280;18221;38.704;0.152;2022-07-25T02:21:02;98746.81;;;28.80;58.35
10176;BME280;18221;38.704;0.152;2022-07-25T02:23:32;98747.31;;;28.72;57.95
10176;BME280;18221;38.704;0.152;2022-07-25T02:26:00;98741.53;;;28.68;58.03
10176;BME280;18221;38.704;0.152;2022-07-25T02:28:28;98742.94;;;28.76;57.98
10176;BME280;18221;38.704;0.152;2022-07-25T02:30:57;98744.28;;;28.73;57.71
10176;BME280;18221;38.704;0.152;2022-07-25T02:33:26;98743.44;;;28.68;57.46
10176;BME280;18221;38.704;0.152;2022-07-25T02:35:54;98743.19;;;28.69;57.42
10176;BME280;18221;38.704;0.152;2022-07-25T02:38:22;98744.00;;;28.70;57.21
10176;BME280;18221;38.704;0.152;2022-07-25T02:40:52;98737.75;;;28.74;56.82
10176;BME280;18221;38.704;0.152;2022-07-25T02:43:20;98738.53;;;28.70;56.98
10176;BME280;18221;38.704;0.152;2022-07-25T02:45:48;98738.78;;;28.68;56.80
10176;BME280;18221;38.704;0.152;2022-07-25T02:48:18;98736.34;;;28.67;56.76
10176;BME280;18221;38.704;0.152;2022-07-25T02:50:46;98725.41;;;28.67;56.43
10176;BME280;18221;38.704;0.152;2022-07-25T02:53:14;98728.16;;;28.67;56.57
10176;BME280;18221;38.704;0.152;2022-07-25T02:55:42;98726.47;;;28.66;56.50
10176;BME280;18221;38.704;0.152;2022-07-25T02:58:10;98728.09;;;28.62;56.68
10176;BME280;18221;38.704;0.152;2022-07-25T03:00:37;98722.69;;;28.67;56.34
10176;BME280;18221;38.704;0.152;2022-07-25T03:03:05;98723.69;;;28.61;56.60
10176;BME280;18221;38.704;0.152;2022-07-25T03:05:35;98721.03;;;28.66;56.35
10176;BME280;18221;38.704;0.152;2022-07-25T03:08:04;98717.13;;;28.57;56.08
10176;BME280;18221;38.704;0.152;2022-07-25T03:10:32;98723.50;;;28.67;56.07
10176;BME280;18221;38.704;0.152;2022-07-25T03:13:01;98716.56;;;28.55;56.08
10176;BME280;18221;38.704;0.152;2022-07-25T03:15:29;98720.06;;;28.50;56.31
10176;BME280;18221;38.704;0.152;2022-07-25T03:17:57;98724.13;;;28.48;56.20
10176;BME280;18221;38.704;0.152;2022-07-25T03:20:25;98716.56;;;28.55;55.76
10176;BME280;18221;38.704;0.152;2022-07-25T03:22:55;98722.31;;;28.58;55.48
10176;BME280;18221;38.704;0.152;2022-07-25T03:25:23;98713.25;;;28.53;55.46
10176;BME280;18221;38.704;0.152;2022-07-25T03:27:50;98709.97;;;28.51;56.05
10176;BME280;18221;38.704;0.152;2022-07-25T03:30:19;98705.06;;;28.53;55.44
10176;BME280;18221;38.704;0.152;2022-07-25T03:32:47;98704.78;;;28.49;55.57
10176;BME280;18221;38.704;0.152;2022-07-25T03:35:15;98709.44;;;28.54;55.21
10176;BME280;18221;38.704;0.152;2022-07-25T03:37:43;98706.94;;;28.52;55.22
10176;BME280;18221;38.704;0.152;2022-07-25T03:40:13;98711.03;;;28.50;55.03
10176;BME280;18221;38.704;0.152;2022-07-25T03:42:41;98707.75;;;28.48;55.05
10176;BME280;18221;38.704;0.152;2022-07-25T03:45:10;98704.50;;;28.51;54.69
10176;BME280;18221;38.704;0.152;2022-07-25T03:47:38;98709.69;;;28.52;54.54
10176;BME280;18221;38.704;0.152;2022-07-25T03:50:06;98715.16;;;28.52;53.91
10176;BME280;18221;38.704;0.152;2022-07-25T03:52:34;98707.22;;;28.51;53.85
10176;BME280;18221;38.704;0.152;2022-07-25T03:55:04;98708.59;;;28.53;53.61
10176;BME280;18221;38.704;0.152;2022-07-25T03:57:34;98707.81;;;28.58;53.84
10176;BME280;18221;38.704;0.152;2022-07-25T04:00:03;98707.78;;;28.53;54.07
10176;BME280;18221;38.704;0.152;2022-07-25T04:02:31;98708.59;;;28.53;53.96
10176;BME280;18221;38.704;0.152;2022-07-25T04:05:00;98710.31;;;28.59;53.80
10176;BME280;18221;38.704;0.152;2022-07-25T04:07:28;98711.63;;;28.52;53.44
10176;BME280;18221;38.704;0.152;2022-07-25T04:09:56;98711.03;;;28.50;53.86
10176;BME280;18221;38.704;0.152;2022-07-25T04:12:24;98711.59;;;28.47;53.64
10176;BME280;18221;38.704;0.152;2022-07-25T04:14:53;98711.59;;;28.47;53.64
10176;BME280;18221;38.704;0.152;2022-07-25T04:17:22;98703.19;;;28.58;53.29
10176;BME280;18221;38.704;0.152;2022-07-25T04:19:49;98705.88;;;28.53;53.04
10176;BME280;18221;38.704;0.152;2022-07-25T04:22:17;98723.09;;;28.54;52.70
10176;BME280;18221;38.704;0.152;2022-07-25T04:24:45;98714.38;;;28.57;51.66
10176;BME280;18221;38.704;0.152;2022-07-25T04:27:13;98715.75;;;28.59;51.75
10176;BME280;18221;38.704;0.152;2022-07-25T04:29:42;98718.81;;;28.63;50.95
10176;BME280;18221;38.704;0.152;2022-07-25T04:32:11;98715.28;;;28.62;50.59
10176;BME280;18221;38.704;0.152;2022-07-25T04:34:40;98711.13;;;28.60;50.42
10176;BME280;18221;38.704;0.152;2022-07-25T04:37:08;98712.75;;;28.61;50.51
10176;BME280;18221;38.704;0.152;2022-07-25T04:39:37;98721.53;;;28.63;50.37
10176;BME280;18221;38.704;0.152;2022-07-25T04:42:05;98719.94;;;28.67;50.24
10176;BME280;18221;38.704;0.152;2022-07-25T04:44:33;98723.41;;;28.57;50.58
10176;BME280;18221;38.704;0.152;2022-07-25T04:47:00;98727.53;;;28.60;50.83
10176;BME280;18221;38.704;0.152;2022-07-25T04:49:30;98726.41;;;28.61;50.87
10176;BME280;18221;38.704;0.152;2022-07-25T04:51:58;98730.50;;;28.58;50.43
10176;BME280;18221;38.704;0.152;2022-07-25T04:54:26;98722.66;;;28.62;50.13
10176;BME280;18221;38.704;0.152;2022-07-25T04:56:54;98726.31;;;28.46;50.95
10176;BME280;18221;38.704;0.152;2022-07-25T04:59:22;98720.84;;;28.46;50.87
10176;BME280;18221;38.704;0.152;2022-07-25T05:01:50;98724.38;;;28.41;50.71
10176;BME280;18221;38.704;0.152;2022-07-25T05:04:17;98711.88;;;28.50;50.31
10176;BME280;18221;38.704;0.152;2022-07-25T05:06:47;98715.06;;;28.42;49.96
10176;BME280;18221;38.704;0.152;2022-07-25T05:09:15;98711.59;;;28.47;48.17
10176;BME280;18221;38.704;0.152;2022-07-25T05:11:42;98722.38;;;28.32;47.71
10176;BME280;18221;38.704;0.152;2022-07-25T05:14:10;98715.53;;;28.29;48.23
10176;BME280;18221;38.704;0.152;2022-07-25T05:16:38;98715.97;;;28.53;47.93
10176;BME280;18221;38.704;0.152;2022-07-25T05:19:10;98713.16;;;28.43;48.57
10176;BME280;18221;38.704;0.152;2022-07-25T05:21:38;98720.41;;;28.59;48.91
10176;BME280;18221;38.704;0.152;2022-07-25T05:24:08;98726.69;;;28.59;48.97
10176;BME280;18221;38.704;0.152;2022-07-25T05:26:35;98727.00;;;28.63;48.03
10176;BME280;18221;38.704;0.152;2022-07-25T05:29:03;98733.09;;;28.70;47.35
10176;BME280;18221;38.704;0.152;2022-07-25T05:31:31;98726.41;;;28.61;47.37
10176;BME280;18221;38.704;0.152;2022-07-25T05:33:59;98728.31;;;28.60;47.83
10176;BME280;18221;38.704;0.152;2022-07-25T05:36:27;98722.03;;;28.55;48.43
10176;BME280;18221;38.704;0.152;2022-07-25T05:38:55;98722.41;;;28.68;48.60
10176;BME280;18221;38.704;0.152;2022-07-25T05:41:29;98739.09;;;28.72;48.13
10176;BME280;18221;38.704;0.152;2022-07-25T05:43:57;98736.88;;;28.69;48.22
10176;BME280;18221;38.704;0.152;2022-07-25T05:46:25;98735.81;;;28.70;48.58
10176;BME280;18221;38.704;0.152;2022-07-25T05:48:53;98734.16;;;28.69;49.11
10176;BME280;18221;38.704;0.152;2022-07-25T05:51:20;98740.47;;;28.74;49.36
10176;BME280;18221;38.704;0.152;2022-07-25T05:53:48;98734.56;;;28.88;48.88
10176;BME280;18221;38.704;0.152;2022-07-25T05:56:16;98749.03;;;28.83;47.53
10176;BME280;18221;38.704;0.152;2022-07-25T05:58:46;98736.94;;;28.79;47.35
10176;BME280;18221;38.704;0.152;2022-07-25T06:01:14;98744.56;;;28.72;46.97
10176;BME280;18221;38.704;0.152;2022-07-25T06:03:45;98747.66;;;28.86;47.88
10176;BME280;18221;38.704;0.152;2022-07-25T06:06:13;98743.09;;;28.96;47.43
10176;BME280;18221;38.704;0.152;2022-07-25T06:08:43;98741.13;;;28.92;47.41
10176;BME280;18221;38.704;0.152;2022-07-25T06:11:11;98744.16;;;28.95;47.52
10176;BME280;18221;38.704;0.152;2022-07-25T06:13:39;98747.72;;;28.96;47.51
10176;BME280;18221;38.704;0.152;2022-07-25T06:16:09;98742.25;;;28.96;47.00
10176;BME280;18221;38.704;0.152;2022-07-25T06:18:37;98748.56;;;28.96;46.14
10176;BME280;18221;38.704;0.152;2022-07-25T06:21:06;98753.25;;;29.06;45.31
10176;BME280;18221;38.704;0.152;2022-07-25T06:23:34;98759.06;;;29.19;45.93
10176;BME280;18221;38.704;0.152;2022-07-25T06:26:02;98752.28;;;29.22;45.86
10176;BME280;18221;38.704;0.152;2022-07-25T06:28:30;98759.38;;;29.23;45.80
10176;BME280;18221;38.704;0.152;2022-07-25T06:30:58;98762.72;;;29.30;45.07
10176;BME280;18221;38.704;0.152;2022-07-25T06:33:27;98752.31;;;29.32;45.07
10176;BME280;18221;38.704;0.152;2022-07-25T06:35:55;98751.03;;;29.50;44.91
10176;BME280;18221;38.704;0.152;2022-07-25T06:38:23;98757.34;;;29.60;42.38
10176;BME280;18221;38.704;0.152;2022-07-25T06:40:51;98763.13;;;29.69;42.99
10176;BME280;18221;38.704;0.152;2022-07-25T06:43:19;98763.16;;;29.74;42.65
10176;BME280;18221;38.704;0.152;2022-07-25T06:45:47;98763.41;;;29.72;41.05
10176;BME280;18221;38.704;0.152;2022-07-25T06:48:16;98765.41;;;29.82;40.82
10176;BME280;18221;38.704;0.152;2022-07-25T06:50:45;98760.50;;;29.99;39.56
10176;BME280;18221;38.704;0.152;2022-07-25T06:53:13;98769.31;;;30.26;38.88
10176;BME280;18221;38.704;0.152;2022-07-25T06:55:41;98771.81;;;30.38;37.18
10176;BME280;18221;38.704;0.152;2022-07-25T06:58:10;98770.72;;;30.54;36.97
10176;BME280;18221;38.704;0.152;2022-07-25T07:00:38;98767.97;;;30.69;35.20
10176;BME280;18221;38.704;0.152;2022-07-25T07:03:06;98766.03;;;30.75;33.28
10176;BME280;18221;38.704;0.152;2022-07-25T07:05:34;98769.59;;;30.75;33.99
10176;BME280;18221;38.704;0.152;2022-07-25T07:08:04;98778.91;;;30.79;33.72
10176;BME280;18221;38.704;0.152;2022-07-25T07:10:35;98774.78;;;31.12;34.00
10176;BME280;18221;38.704;0.152;2022-07-25T07:13:06;98773.66;;;31.23;32.11
10176;BME280;18221;38.704;0.152;2022-07-25T07:15:35;98777.97;;;31.44;31.80
10176;BME280;18221;38.704;0.152;2022-07-25T07:18:03;98773.78;;;31.67;30.38
10176;BME280;18221;38.704;0.152;2022-07-25T07:20:33;98781.69;;;31.78;27.81
10176;BME280;18221;38.704;0.152;2022-07-25T07:23:03;98778.59;;;31.90;28.87
10176;BME280;18221;38.704;0.152;2022-07-25T07:25:31;98779.94;;;32.03;28.96
10176;BME280;18221;38.704;0.152;2022-07-25T07:27:59;98781.47;;;32.19;30.00
10176;BME280;18221;38.704;0.152;2022-07-25T07:30:27;98778.63;;;32.34;28.88
10176;BME280;18221;38.704;0.152;2022-07-25T07:32:56;98774.53;;;32.31;30.03
10176;BME280;18221;38.704;0.152;2022-07-25T07:35:24;98778.84;;;32.43;29.32
10176;BME280;18221;38.704;0.152;2022-07-25T07:37:52;98786.47;;;32.56;29.58
10176;BME280;18221;38.704;0.152;2022-07-25T07:40:22;98779.38;;;32.78;28.95
10176;BME280;18221;38.704;0.152;2022-07-25T07:42:52;98786.66;;;32.93;27.29
10176;BME280;18221;38.704;0.152;2022-07-25T07:45:22;98790.81;;;33.19;26.57
10176;BME280;18221;38.704;0.152;2022-07-25T07:47:53;98780.72;;;33.62;26.56
10176;BME280;18221;38.704;0.152;2022-07-25T07:50:23;98787.50;;;34.12;26.01
10176;BME280;18221;38.704;0.152;2022-07-25T07:52:53;98787.38;;;34.73;25.30
10176;BME280;18221;38.704;0.152;2022-07-25T07:55:23;98787.94;;;35.48;23.50
10176;BME280;18221;38.704;0.152;2022-07-25T07:58:09;98792.38;;;36.26;21.42
10176;BME280;18221;38.704;0.152;2022-07-25T08:00:37;98794.50;;;36.65;21.25
10176;BME280;18221;38.704;0.152;2022-07-25T08:03:07;98796.75;;;37.07;22.69
10176;BME280;18221;38.704;0.152;2022-07-25T08:05:37;98803.50;;;37.62;22.06
10176;BME280;18221;38.704;0.152;2022-07-25T08:08:09;98801.56;;;38.19;21.26
10176;BME280;18221;38.704;0.152;2022-07-25T08:10:43;98793.09;;;38.76;21.48
10176;BME280;18221;38.704;0.152;2022-07-25T08:13:15;98800.16;;;39.28;21.87
10176;BME280;18221;38.704;0.152;2022-07-25T08:15:46;98800.91;;;39.84;21.69
10176;BME280;18221;38.704;0.152;2022-07-25T08:18:15;98803.41;;;40.27;20.27
10176;BME280;18221;38.704;0.152;2022-07-25T08:20:43;98800.31;;;40.49;18.61
10176;BME280;18221;38.704;0.152;2022-07-25T08:23:11;98805.53;;;40.83;18.65
10176;BME280;18221;38.704;0.152;2022-07-25T08:25:41;98809.84;;;41.13;17.63
10176;BME280;18221;38.704;0.152;2022-07-25T08:28:09;98805.22;;;41.30;17.47
10176;BME280;18221;38.704;0.152;2022-07-25T08:30:39;98812.72;;;41.05;18.54
10176;BME280;18221;38.704;0.152;2022-07-25T08:33:09;98806.00;;;40.52;20.03
10176;BME280;18221;38.704;0.152;2022-07-25T08:35:38;98807.94;;;40.31;21.94
10176;BME280;18221;38.704;0.152;2022-07-25T08:38:07;98811.69;;;40.35;22.39
10176;BME280;18221;38.704;0.152;2022-07-25T08:40:37;98807.50;;;40.50;22.38
10176;BME280;18221;38.704;0.152;2022-07-25T08:43:10;98804.53;;;40.88;21.93
10176;BME280;18221;38.704;0.152;2022-07-25T08:45:45;98810.06;;;41.20;21.56
10176;BME280;18221;38.704;0.152;2022-07-25T08:48:15;98802.44;;;41.30;21.70
10176;BME280;18221;38.704;0.152;2022-07-25T08:50:45;98802.38;;;41.05;21.72
10176;BME280;18221;38.704;0.152;2022-07-25T08:53:15;98809.63;;;40.65;22.68
10176;BME280;18221;38.704;0.152;2022-07-25T08:55:45;98813.28;;;40.16;23.49
10176;BME280;18221;38.704;0.152;2022-07-25T08:58:16;98825.88;;;39.63;24.61
10176;BME280;18221;38.704;0.152;2022-07-25T09:00:45;98821.94;;;39.01;25.17
10176;BME280;18221;38.704;0.152;2022-07-25T09:03:13;98827.69;;;38.61;25.61
10176;BME280;18221;38.704;0.152;2022-07-25T09:05:41;98821.63;;;38.34;25.82
10176;BME280;18221;38.704;0.152;2022-07-25T09:08:12;98825.50;;;37.98;27.02
10176;BME280;18221;38.704;0.152;2022-07-25T09:10:45;98818.03;;;37.68;27.11
10176;BME280;18221;38.704;0.152;2022-07-25T09:13:16;98813.91;;;37.26;27.51
10176;BME280;18221;38.704;0.152;2022-07-25T09:15:47;98821.41;;;36.73;28.47
10176;BME280;18221;38.704;0.152;2022-07-25T09:18:21;98823.94;;;36.47;29.13
10176;BME280;18221;38.704;0.152;2022-07-25T09:20:53;98825.28;;;36.49;28.99
10176;BME280;18221;38.704;0.152;2022-07-25T09:23:31;98827.53;;;36.47;28.86
10176;BME280;18221;38.704;0.152;2022-07-25T09:26:05;98832.91;;;36.30;29.01
10176;BME280;18221;38.704;0.152;2022-07-25T09:28:42;98824.22;;;36.23;29.00
10176;BME280;18221;38.704;0.152;2022-07-25T09:31:11;98827.97;;;36.27;29.39
10176;BME280;18221;38.704;0.152;2022-07-25T09:33:46;98832.03;;;36.43;29.77
10176;BME280;18221;38.704;0.152;2022-07-25T09:36:14;98841.16;;;36.58;30.01
10176;BME280;18221;38.704;0.152;2022-07-25T09:38:51;98834.16;;;36.60;30.37
10176;BME280;18221;38.704;0.152;2022-07-25T09:41:19;98824.72;;;36.61;29.60
10176;BME280;18221;38.704;0.152;2022-07-25T09:43:48;98828.31;;;36.26;30.43
10176;BME280;18221;38.704;0.152;2022-07-25T09:46:16;98826.50;;;36.43;29.73
10176;BME280;18221;38.704;0.152;2022-07-25T09:48:44;98829.19;;;36.48;30.37
10176;BME280;18221;38.704;0.152;2022-07-25T09:51:24;98830.00;;;36.49;30.49
10176;BME280;18221;38.704;0.152;2022-07-25T09:53:52;98825.63;;;36.34;30.67
10176;BME280;18221;38.704;0.152;2022-07-25T09:56:20;98824.84;;;36.56;28.53
10176;BME280;18221;38.704;0.152;2022-07-25T09:58:49;98817.78;;;36.14;29.07
10176;BME280;18221;38.704;0.152;2022-07-25T10:01:26;98823.84;;;36.16;29.59
10176;BME280;18221;38.704;0.152;2022-07-25T10:04:13;98824.97;;;36.51;29.99
10176;BME280;18221;38.704;0.152;2022-07-25T10:06:53;98824.97;;;36.37;28.93
10176;BME280;18221;38.704;0.152;2022-07-25T10:09:24;98829.88;;;36.18;26.99
10176;BME280;18221;38.704;0.152;2022-07-25T10:12:08;98829.28;;;36.08;26.08
10176;BME280;18221;38.704;0.152;2022-07-25T10:14:39;98831.84;;;36.40;23.37
10176;BME280;18221;38.704;0.152;2022-07-25T10:17:07;98825.69;;;36.43;25.19
10176;BME280;18221;38.704;0.152;2022-07-25T10:19:40;98834.88;;;36.66;24.77
10176;BME280;18221;38.704;0.152;2022-07-25T10:22:09;98825.69;;;36.79;23.04
10176;BME280;18221;38.704;0.152;2022-07-25T10:24:43;98829.94;;;36.63;22.10
10176;BME280;18221;38.704;0.152;2022-07-25T10:27:19;98838.00;;;36.73;22.74
10176;BME280;18221;38.704;0.152;2022-07-25T10:29:53;98833.34;;;36.24;25.61
10176;BME280;18221;38.704;0.152;2022-07-25T10:32:31;98832.97;;;36.03;25.26
10176;BME280;18221;38.704;0.152;2022-07-25T10:35:11;98828.16;;;36.44;25.14
10176;BME280;18221;38.704;0.152;2022-07-25T10:37:44;98821.78;;;36.58;22.15
10176;BME280;18221;38.704;0.152;2022-07-25T10:40:32;98825.16;;;36.77;21.98
10176;BME280;18221;38.704;0.152;2022-07-25T10:43:07;98825.47;;;36.75;22.41
10176;BME280;18221;38.704;0.152;2022-07-25T10:45:47;98821.63;;;36.85;21.54
10176;BME280;18221;38.704;0.152;2022-07-25T10:48:22;98818.38;;;36.83;19.68
10176;BME280;18221;38.704;0.152;2022-07-25T10:50:56;98825.00;;;36.95;21.13
10176;BME280;18221;38.704;0.152;2022-07-25T10:53:30;98811.44;;;36.94;21.33
10176;BME280;18221;38.704;0.152;2022-07-25T10:56:04;98814.47;;;37.06;18.96
10176;BME280;18221;38.704;0.152;2022-07-25T10:58:51;98812.53;;;37.06;21.76
10176;BME280;18221;38.704;0.152;2022-07-25T11:01:23;98820.22;;;37.18;21.77
10176;BME280;18221;38.704;0.152;2022-07-25T11:03:52;98805.88;;;37.47;20.80
10176;BME280;18221;38.704;0.152;2022-07-25T11:06:33;98810.41;;;37.82;21.96
10176;BME280;18221;38.704;0.152;2022-07-25T11:09:12;98810.34;;;38.13;23.40
10176;BME280;18221;38.704;0.152;2022-07-25T11:11:44;98806.41;;;38.05;23.76
10176;BME280;18221;38.704;0.152;2022-07-25T11:14:17;98808.41;;;38.22;23.76
10176;BME280;18221;38.704;0.152;2022-07-25T11:16:51;98808.38;;;38.13;23.29
10176;BME280;18221;38.704;0.152;2022-07-25T11:19:22;98810.00;;;38.23;23.32
10176;BME280;18221;38.704;0.152;2022-07-25T11:21:53;98807.59;;;38.21;22.99
10176;BME280;18221;38.704;0.152;2022-07-25T11:24:21;98802.81;;;37.96;23.25
10176;BME280;18221;38.704;0.152;2022-07-25T11:26:51;98803.56;;;37.80;21.06
10176;BME280;18221;38.704;0.152;2022-07-25T11:29:21;98796.63;;;37.91;21.55
10176;BME280;18221;38.704;0.152;2022-07-25T11:31:58;98805.91;;;37.95;26.34
10176;BME280;18221;38.704;0.152;2022-07-25T11:34:30;98803.63;;;37.97;25.24
10176;BME280;18221;38.704;0.152;2022-07-25T11:37:01;98791.88;;;38.00;25.73
10176;BME280;18221;38.704;0.152;2022-07-25T11:39:31;98788.94;;;37.88;24.80
10176;BME280;18221;38.704;0.152;2022-07-25T11:42:05;98794.81;;;37.95;27.40
10176;BME280;18221;38.704;0.152;2022-07-25T11:44:36;98790.59;;;38.06;26.94
10176;BME280;18221;38.704;0.152;2022-07-25T11:47:09;98791.94;;;38.17;26.91
10176;BME280;18221;38.704;0.152;2022-07-25T11:49:49;98793.72;;;38.21;26.62
10176;BME280;18221;38.704;0.152;2022-07-25T11:52:20;98785.84;;;37.98;26.97
10176;BME280;18221;38.704;0.152;2022-07-25T11:54:53;98785.19;;;37.92;27.51
10176;BME280;18221;38.704;0.152;2022-07-25T11:57:23;98789.63;;;37.93;27.30
10176;BME280;18221;38.704;0.152;2022-07-25T11:59:51;98780.31;;;37.98;27.13
10176;BME280;18221;38.704;0.152;2022-07-25T12:02:26;98782.53;;;37.79;27.54
10176;BME280;18221;38.704;0.152;2022-07-25T12:04:58;98776.16;;;37.69;27.93
10176;BME280;18221;38.704;0.152;2022-07-25T12:07:42;98777.63;;;37.67;28.53
10176;BME280;18221;38.704;0.152;2022-07-25T12:10:14;98785.06;;;37.58;28.87
10176;BME280;18221;38.704;0.152;2022-07-25T12:12:46;98785.41;;;37.56;28.68
10176;BME280;18221;38.704;0.152;2022-07-25T12:15:20;98793.63;;;37.39;29.20
10176;BME280;18221;38.704;0.152;2022-07-25T12:17:52;98790.50;;;37.32;28.81
10176;BME280;18221;38.704;0.152;2022-07-25T12:20:22;98781.28;;;37.45;28.71
10176;BME280;18221;38.704;0.152;2022-07-25T12:22:54;98786.38;;;37.60;28.15
10176;BME280;18221;38.704;0.152;2022-07-25T12:25:23;98776.22;;;37.95;27.12
10176;BME280;18221;38.704;0.152;2022-07-25T12:27:51;98782.09;;;37.94;28.13
10176;BME280;18221;38.704;0.152;2022-07-25T12:30:19;98774.38;;;37.82;28.75
10176;BME280;18221;38.704;0.152;2022-07-25T12:32:48;98774.84;;;37.76;29.74
10176;BME280;18221;38.704;0.152;2022-07-25T12:35:17;98775.78;;;37.62;30.67
10176;BME280;18221;38.704;0.152;2022-07-25T12:37:45;98770.22;;;37.45;31.43
10176;BME280;18221;38.704;0.152;2022-07-25T12:40:15;98767.66;;;37.27;31.62
10176;BME280;18221;38.704;0.152;2022-07-25T12:42:44;98758.34;;;37.14;32.40
10176;BME280;18221;38.704;0.152;2022-07-25T12:45:13;98758.88;;;37.25;31.87
10176;BME280;18221;38.704;0.152;2022-07-25T12:47:43;98754.69;;;36.96;32.73
10176;BME280;18221;38.704;0.152;2022-07-25T12:50:14;98760.63;;;37.12;32.58
10176;BME280;18221;38.704;0.152;2022-07-25T12:52:44;98763.03;;;37.05;33.18
10176;BME280;18221;38.704;0.152;2022-07-25T12:55:16;98762.81;;;36.71;34.93
10176;BME280;18221;38.704;0.152;2022-07-25T12:57:45;98752.66;;;36.66;34.43
10176;BME280;18221;38.704;0.152;2022-07-25T13:00:16;98748.72;;;36.59;34.56
10176;BME280;18221;38.704;0.152;2022-07-25T13:02:45;98754.94;;;36.64;35.02
10176;BME280;18221;38.704;0.152;2022-07-25T13:05:14;98751.09;;;36.51;36.04
10176;BME280;18221;38.704;0.152;2022-07-25T13:07:42;98749.88;;;36.44;35.83
10176;BME280;18221;38.704;0.152;2022-07-25T13:10:10;98757.53;;;36.61;37.34
10176;BME280;18221;38.704;0.152;2022-07-25T13:12:38;98751.88;;;36.66;36.99
10176;BME280;18221;38.704;0.152;2022-07-25T13:15:07;98749.69;;;36.85;36.18
10176;BME280;18221;38.704;0.152;2022-07-25T13:17:36;98746.91;;;37.07;35.68
10176;BME280;18221;38.704;0.152;2022-07-25T13:20:07;98746.97;;;37.24;34.81
10176;BME280;18221;38.704;0.152;2022-07-25T13:22:38;98747.50;;;37.35;35.74
10176;BME280;18221;38.704;0.152;2022-07-25T13:25:06;98743.16;;;37.42;35.52